sensor_id;sensor_type;location;lat;lon;timestamp;temperature;humidity
2012;DHT22;1009;51.436;6.972;2022-10-26T00:02:02;12.80;99.90
2012;DHT22;1009;51.436;6.972;2022-10-26T00:04:30;12.90;99.90
2012;DHT22;1009;51.436;6.972;2022-10-26T00:06:57;12.90;99.90
2012;DHT22;1009;51.436;6.972;2022-10-26T00:09:23;12.90;99.90
2012;DHT22;1009;51.436;6.972;2022-10-26T00:11:51;12.80;99.90
2012;DHT22;1009;51.436;6.972;2022-10-26T00:14:18;12.80;99.90
2012;DHT22;1009;51.436;6.972;2022-10-26T00:16:45;12.70;99.90
2012;DHT22;1009;51.436;6.972;2022-10-26T00:19:12;12.70;99.90
2012;DHT22;1009;51.436;6.972;2022-10-26T00:21:40;12.70;99.90
2012;DHT22;1009;51.436;6.972;2022-10-26T00:24:07;12.70;99.90
2012;DHT22;1009;51.436;6.972;2022-10-26T00:26:33;12.70;99.90
2012;DHT22;1009;51.436;6.972;2022-10-26T00:29:00;12.70;99.90
2012;DHT22;1009;51.436;6.972;2022-10-26T00:31:27;12.70;99.90
2012;DHT22;1009;51.436;6.972;2022-10-26T00:33:54;12.60;99.90
2012;DHT22;1009;51.436;6.972;2022-10-26T00:36:22;12.60;99.90
2012;DHT22;1009;51.436;6.972;2022-10-26T00:38:52;12.70;99.90
2012;DHT22;1009;51.436;6.972;2022-10-26T00:41:20;12.70;99.90
2012;DHT22;1009;51.436;6.972;2022-10-26T00:43:48;12.80;99.90
2012;DHT22;1009;51.436;6.972;2022-10-26T00:46:18;12.80;99.90
2012;DHT22;1009;51.436;6.972;2022-10-26T00:48:49;12.80;99.90
2012;DHT22;1009;51.436;6.972;2022-10-26T00:51:22;12.80;99.90
2012;DHT22;1009;51.436;6.972;2022-10-26T00:53:51;12.80;99.90
2012;DHT22;1009;51.436;6.972;2022-10-26T00:56:18;12.90;99.90
2012;DHT22;1009;51.436;6.972;2022-10-26T00:58:46;12.90;99.90
2012;DHT22;1009;51.436;6.972;2022-10-26T01:01:13;12.90;99.90
2012;DHT22;1009;51.436;6.972;2022-10-26T01:03:39;13.00;99.90
2012;DHT22;1009;51.436;6.972;2022-10-26T01:06:07;12.90;99.90
2012;DHT22;1009;51.436;6.972;2022-10-26T01:08:34;12.90;99.90
2012;DHT22;1009;51.436;6.972;2022-10-26T01:11:03;13.00;99.90
2012;DHT22;1009;51.436;6.972;2022-10-26T01:13:32;12.90;99.90
2012;DHT22;1009;51.436;6.972;2022-10-26T01:16:24;12.90;99.90
2012;DHT22;1009;51.436;6.972;2022-10-26T01:19:02;13.00;99.90
2012;DHT22;1009;51.436;6.972;2022-10-26T01:21:41;13.00;99.90
2012;DHT22;1009;51.436;6.972;2022-10-26T01:24:34;13.00;99.90
2012;DHT22;1009;51.436;6.972;2022-10-26T01:27:20;13.00;99.90
2012;DHT22;1009;51.436;6.972;2022-10-26T01:30:16;13.00;99.90
2012;DHT22;1009;51.436;6.972;2022-10-26T01:32:46;13.00;99.90
2012;DHT22;1009;51.436;6.972;2022-10-26T01:35:20;13.00;99.90
2012;DHT22;1009;51.436;6.972;2022-10-26T01:37:55;13.00;99.90
2012;DHT22;1009;51.436;6.972;2022-10-26T01:40:26;13.10;99.90
2012;DHT22;1009;51.436;6.972;2022-10-26T01:42:56;13.10;99.90
2012;DHT22;1009;51.436;6.972;2022-10-26T01:45:27;13.10;99.90
2012;DHT22;1009;51.436;6.972;2022-10-26T01:47:55;13.10;99.90
2012;DHT22;1009;51.436;6.972;2022-10-26T01:50:25;13.00;99.90
2012;DHT22;1009;51.436;6.972;2022-10-26T01:52:53;13.00;99.90
2012;DHT22;1009;51.436;6.972;2022-10-26T01:55:48;12.90;99.90
2012;DHT22;1009;51.436;6.972;2022-10-26T02:01:32;12.90;99.90
2012;DHT22;1009;51.436;6.972;2022-10-26T02:04:07;12.80;99.90
2012;DHT22;1009;51.436;6.972;2022-10-26T02:06:42;12.80;99.90
2012;DHT22;1009;51.436;6.972;2022-10-26T02:09:20;12.80;99.90
2012;DHT22;1009;51.436;6.972;2022-10-26T02:11:50;12.80;99.90
2012;DHT22;1009;51.436;6.972;2022-10-26T02:14:22;12.80;99.90
2012;DHT22;1009;51.436;6.972;2022-10-26T02:16:56;12.70;99.90
2012;DHT22;1009;51.436;6.972;2022-10-26T02:19:31;12.60;99.90
2012;DHT22;1009;51.436;6.972;2022-10-26T02:22:04;12.70;99.90
2012;DHT22;1009;51.436;6.972;2022-10-26T02:24:33;12.70;99.90
2012;DHT22;1009;51.436;6.972;2022-10-26T02:27:03;12.70;99.90
2012;DHT22;1009;51.436;6.972;2022-10-26T02:29:32;12.80;99.90
2012;DHT22;1009;51.436;6.972;2022-10-26T02:32:02;12.90;99.90
2012;DHT22;1009;51.436;6.972;2022-10-26T02:34:31;12.90;99.90
2012;DHT22;1009;51.436;6.972;2022-10-26T02:37:01;13.00;99.90
2012;DHT22;1009;51.436;6.972;2022-10-26T02:39:31;12.90;99.90
2012;DHT22;1009;51.436;6.972;2022-10-26T02:42:00;12.90;99.90
2012;DHT22;1009;51.436;6.972;2022-10-26T02:44:30;12.90;99.90
2012;DHT22;1009;51.436;6.972;2022-10-26T02:46:58;12.80;99.90
2012;DHT22;1009;51.436;6.972;2022-10-26T02:49:26;12.90;99.90
2012;DHT22;1009;51.436;6.972;2022-10-26T02:52:00;12.90;99.90
2012;DHT22;1009;51.436;6.972;2022-10-26T02:54:31;12.90;99.90
2012;DHT22;1009;51.436;6.972;2022-10-26T02:57:02;13.00;99.90
2012;DHT22;1009;51.436;6.972;2022-10-26T02:59:34;13.10;99.90
2012;DHT22;1009;51.436;6.972;2022-10-26T03:02:02;13.20;99.90
2012;DHT22;1009;51.436;6.972;2022-10-26T03:04:32;13.20;99.90
2012;DHT22;1009;51.436;6.972;2022-10-26T03:07:00;13.20;99.90
2012;DHT22;1009;51.436;6.972;2022-10-26T03:09:27;13.10;99.90
2012;DHT22;1009;51.436;6.972;2022-10-26T03:11:54;13.10;99.90
2012;DHT22;1009;51.436;6.972;2022-10-26T03:14:21;13.10;99.90
2012;DHT22;1009;51.436;6.972;2022-10-26T03:16:47;13.10;99.90
2012;DHT22;1009;51.436;6.972;2022-10-26T03:19:14;13.20;99.90
2012;DHT22;1009;51.436;6.972;2022-10-26T03:21:42;13.20;99.90
2012;DHT22;1009;51.436;6.972;2022-10-26T03:24:09;13.30;99.90
2012;DHT22;1009;51.436;6.972;2022-10-26T03:26:36;13.40;99.90
2012;DHT22;1009;51.436;6.972;2022-10-26T03:29:03;13.50;99.90
2012;DHT22;1009;51.436;6.972;2022-10-26T03:31:29;13.70;99.90
2012;DHT22;1009;51.436;6.972;2022-10-26T03:33:56;13.80;99.90
2012;DHT22;1009;51.436;6.972;2022-10-26T03:36:23;13.90;99.90
2012;DHT22;1009;51.436;6.972;2022-10-26T03:38:51;13.90;99.90
2012;DHT22;1009;51.436;6.972;2022-10-26T03:41:18;14.10;99.90
2012;DHT22;1009;51.436;6.972;2022-10-26T03:43:44;14.20;99.90
2012;DHT22;1009;51.436;6.972;2022-10-26T03:46:12;14.30;99.90
2012;DHT22;1009;51.436;6.972;2022-10-26T03:48:39;14.40;99.90
2012;DHT22;1009;51.436;6.972;2022-10-26T03:51:06;14.50;99.90
2012;DHT22;1009;51.436;6.972;2022-10-26T03:53:33;14.50;99.90
2012;DHT22;1009;51.436;6.972;2022-10-26T03:56:01;14.60;99.90
2012;DHT22;1009;51.436;6.972;2022-10-26T03:58:27;14.70;99.90
2012;DHT22;1009;51.436;6.972;2022-10-26T04:00:54;14.80;99.90
2012;DHT22;1009;51.436;6.972;2022-10-26T04:03:21;14.80;99.90
2012;DHT22;1009;51.436;6.972;2022-10-26T04:05:48;14.90;99.90
2012;DHT22;1009;51.436;6.972;2022-10-26T04:08:14;14.90;99.90
2012;DHT22;1009;51.436;6.972;2022-10-26T04:10:41;15.00;99.90
2012;DHT22;1009;51.436;6.972;2022-10-26T04:13:10;15.00;99.90
2012;DHT22;1009;51.436;6.972;2022-10-26T04:15:37;15.00;99.90
2012;DHT22;1009;51.436;6.972;2022-10-26T04:18:04;15.10;99.90
2012;DHT22;1009;51.436;6.972;2022-10-26T04:20:32;15.10;99.90
2012;DHT22;1009;51.436;6.972;2022-10-26T04:23:00;15.20;99.90
2012;DHT22;1009;51.436;6.972;2022-10-26T04:25:28;15.20;99.90
2012;DHT22;1009;51.436;6.972;2022-10-26T04:27:54;15.20;99.90
2012;DHT22;1009;51.436;6.972;2022-10-26T04:30:23;15.20;99.90
2012;DHT22;1009;51.436;6.972;2022-10-26T04:32:50;15.20;99.90
2012;DHT22;1009;51.436;6.972;2022-10-26T04:35:17;15.20;99.90
2012;DHT22;1009;51.436;6.972;2022-10-26T04:37:43;15.20;99.90
2012;DHT22;1009;51.436;6.972;2022-10-26T04:40:11;15.30;99.90
2012;DHT22;1009;51.436;6.972;2022-10-26T04:42:41;15.30;99.90
2012;DHT22;1009;51.436;6.972;2022-10-26T04:45:08;15.30;99.90
2012;DHT22;1009;51.436;6.972;2022-10-26T04:47:37;15.40;99.90
2012;DHT22;1009;51.436;6.972;2022-10-26T04:50:05;15.40;99.90
2012;DHT22;1009;51.436;6.972;2022-10-26T04:52:32;15.40;99.90
2012;DHT22;1009;51.436;6.972;2022-10-26T04:54:58;15.40;99.90
2012;DHT22;1009;51.436;6.972;2022-10-26T04:57:25;15.50;99.90
2012;DHT22;1009;51.436;6.972;2022-10-26T04:59:52;15.50;99.90
2012;DHT22;1009;51.436;6.972;2022-10-26T05:02:18;15.50;99.90
2012;DHT22;1009;51.436;6.972;2022-10-26T05:04:47;15.60;99.90
2012;DHT22;1009;51.436;6.972;2022-10-26T05:07:14;15.60;99.90
2012;DHT22;1009;51.436;6.972;2022-10-26T05:09:41;15.60;99.90
2012;DHT22;1009;51.436;6.972;2022-10-26T05:12:08;15.50;99.90
2012;DHT22;1009;51.436;6.972;2022-10-26T05:14:35;15.60;99.90
2012;DHT22;1009;51.436;6.972;2022-10-26T05:17:01;15.60;99.90
2012;DHT22;1009;51.436;6.972;2022-10-26T05:19:28;15.60;99.90
2012;DHT22;1009;51.436;6.972;2022-10-26T05:21:56;15.60;99.90
2012;DHT22;1009;51.436;6.972;2022-10-26T05:24:23;15.60;99.90
2012;DHT22;1009;51.436;6.972;2022-10-26T05:26:49;15.60;99.90
2012;DHT22;1009;51.436;6.972;2022-10-26T05:29:16;15.60;99.90
2012;DHT22;1009;51.436;6.972;2022-10-26T05:31:43;15.60;99.90
2012;DHT22;1009;51.436;6.972;2022-10-26T05:34:10;15.70;99.90
2012;DHT22;1009;51.436;6.972;2022-10-26T05:36:36;15.80;99.90
2012;DHT22;1009;51.436;6.972;2022-10-26T05:39:05;15.70;99.90
2012;DHT22;1009;51.436;6.972;2022-10-26T05:41:31;15.70;99.90
2012;DHT22;1009;51.436;6.972;2022-10-26T05:43:58;15.70;99.90
2012;DHT22;1009;51.436;6.972;2022-10-26T05:46:25;15.70;99.90
2012;DHT22;1009;51.436;6.972;2022-10-26T05:48:52;15.70;99.90
2012;DHT22;1009;51.436;6.972;2022-10-26T05:51:19;15.70;99.90
2012;DHT22;1009;51.436;6.972;2022-10-26T05:53:45;15.70;99.90
2012;DHT22;1009;51.436;6.972;2022-10-26T05:56:18;15.70;99.90
2012;DHT22;1009;51.436;6.972;2022-10-26T05:58:46;15.70;99.90
2012;DHT22;1009;51.436;6.972;2022-10-26T06:01:23;15.70;99.90
2012;DHT22;1009;51.436;6.972;2022-10-26T06:04:05;15.60;99.90
2012;DHT22;1009;51.436;6.972;2022-10-26T06:06:38;15.60;99.90
2012;DHT22;1009;51.436;6.972;2022-10-26T06:09:08;15.60;99.90
2012;DHT22;1009;51.436;6.972;2022-10-26T06:11:38;15.60;99.90
2012;DHT22;1009;51.436;6.972;2022-10-26T06:14:05;15.60;99.90
2012;DHT22;1009;51.436;6.972;2022-10-26T06:16:40;15.70;99.90
2012;DHT22;1009;51.436;6.972;2022-10-26T06:19:22;15.70;99.90
2012;DHT22;1009;51.436;6.972;2022-10-26T06:21:59;15.70;99.90
2012;DHT22;1009;51.436;6.972;2022-10-26T06:24:33;15.80;99.90
2012;DHT22;1009;51.436;6.972;2022-10-26T06:27:14;15.90;99.90
2012;DHT22;1009;51.436;6.972;2022-10-26T06:29:49;15.90;99.90
2012;DHT22;1009;51.436;6.972;2022-10-26T06:32:21;16.00;99.90
2012;DHT22;1009;51.436;6.972;2022-10-26T06:34:50;16.00;99.90
2012;DHT22;1009;51.436;6.972;2022-10-26T06:37:19;16.10;99.90
2012;DHT22;1009;51.436;6.972;2022-10-26T06:39:48;16.10;99.90
2012;DHT22;1009;51.436;6.972;2022-10-26T06:42:17;16.20;99.90
2012;DHT22;1009;51.436;6.972;2022-10-26T06:44:45;16.20;99.90
2012;DHT22;1009;51.436;6.972;2022-10-26T06:47:17;16.30;99.90
2012;DHT22;1009;51.436;6.972;2022-10-26T06:49:55;16.30;99.90
2012;DHT22;1009;51.436;6.972;2022-10-26T06:52:30;16.30;99.90
2012;DHT22;1009;51.436;6.972;2022-10-26T06:54:59;16.30;99.90
2012;DHT22;1009;51.436;6.972;2022-10-26T06:57:32;16.40;99.90
2012;DHT22;1009;51.436;6.972;2022-10-26T07:00:03;16.40;99.90
2012;DHT22;1009;51.436;6.972;2022-10-26T07:02:30;16.50;99.90
2012;DHT22;1009;51.436;6.972;2022-10-26T07:04:56;16.50;99.90
2012;DHT22;1009;51.436;6.972;2022-10-26T07:07:24;16.50;99.90
2012;DHT22;1009;51.436;6.972;2022-10-26T07:09:52;16.60;99.90
2012;DHT22;1009;51.436;6.972;2022-10-26T07:12:18;16.60;99.90
2012;DHT22;1009;51.436;6.972;2022-10-26T07:14:46;16.60;99.90
2012;DHT22;1009;51.436;6.972;2022-10-26T07:17:13;16.60;99.90
2012;DHT22;1009;51.436;6.972;2022-10-26T07:19:41;16.60;99.90
2012;DHT22;1009;51.436;6.972;2022-10-26T07:22:09;16.60;99.90
2012;DHT22;1009;51.436;6.972;2022-10-26T07:24:36;16.60;99.90
2012;DHT22;1009;51.436;6.972;2022-10-26T07:27:03;16.60;99.90
2012;DHT22;1009;51.436;6.972;2022-10-26T07:29:29;16.60;99.90
2012;DHT22;1009;51.436;6.972;2022-10-26T07:31:57;16.60;99.90
2012;DHT22;1009;51.436;6.972;2022-10-26T07:34:24;16.60;99.90
2012;DHT22;1009;51.436;6.972;2022-10-26T07:36:51;16.60;99.90
2012;DHT22;1009;51.436;6.972;2022-10-26T07:39:18;16.60;99.90
2012;DHT22;1009;51.436;6.972;2022-10-26T07:41:45;16.60;99.90
2012;DHT22;1009;51.436;6.972;2022-10-26T07:44:11;16.60;99.90
2012;DHT22;1009;51.436;6.972;2022-10-26T07:46:38;16.60;99.90
2012;DHT22;1009;51.436;6.972;2022-10-26T07:49:06;16.60;99.90
2012;DHT22;1009;51.436;6.972;2022-10-26T07:51:33;16.80;99.90
2012;DHT22;1009;51.436;6.972;2022-10-26T07:54:00;16.80;99.90
2012;DHT22;1009;51.436;6.972;2022-10-26T07:56:27;16.80;99.90
2012;DHT22;1009;51.436;6.972;2022-10-26T07:58:54;16.90;99.90
2012;DHT22;1009;51.436;6.972;2022-10-26T08:01:22;16.90;99.90
2012;DHT22;1009;51.436;6.972;2022-10-26T08:03:50;16.80;99.90
2012;DHT22;1009;51.436;6.972;2022-10-26T08:06:19;16.90;99.90
2012;DHT22;1009;51.436;6.972;2022-10-26T08:08:59;16.90;99.90
2012;DHT22;1009;51.436;6.972;2022-10-26T08:11:26;17.10;99.90
2012;DHT22;1009;51.436;6.972;2022-10-26T08:13:53;17.20;99.90
2012;DHT22;1009;51.436;6.972;2022-10-26T08:16:21;17.30;99.90
2012;DHT22;1009;51.436;6.972;2022-10-26T08:18:48;17.30;99.90
2012;DHT22;1009;51.436;6.972;2022-10-26T08:21:15;17.40;99.90
2012;DHT22;1009;51.436;6.972;2022-10-26T08:23:43;17.30;99.90
2012;DHT22;1009;51.436;6.972;2022-10-26T08:26:10;17.30;99.90
2012;DHT22;1009;51.436;6.972;2022-10-26T08:28:37;17.30;99.90
2012;DHT22;1009;51.436;6.972;2022-10-26T08:31:04;17.30;99.90
2012;DHT22;1009;51.436;6.972;2022-10-26T08:33:31;17.40;99.90
2012;DHT22;1009;51.436;6.972;2022-10-26T08:35:59;17.40;99.90
2012;DHT22;1009;51.436;6.972;2022-10-26T08:38:27;17.50;99.90
2012;DHT22;1009;51.436;6.972;2022-10-26T08:40:56;17.40;99.90
2012;DHT22;1009;51.436;6.972;2022-10-26T08:43:26;17.60;99.90
2012;DHT22;1009;51.436;6.972;2022-10-26T08:45:57;17.60;99.90
2012;DHT22;1009;51.436;6.972;2022-10-26T08:48:28;17.50;99.90
2012;DHT22;1009;51.436;6.972;2022-10-26T08:51:00;17.50;99.90
2012;DHT22;1009;51.436;6.972;2022-10-26T08:53:32;17.60;99.90
2012;DHT22;1009;51.436;6.972;2022-10-26T08:56:07;17.70;99.90
2012;DHT22;1009;51.436;6.972;2022-10-26T08:58:40;17.70;99.90
2012;DHT22;1009;51.436;6.972;2022-10-26T09:01:09;17.80;99.90
2012;DHT22;1009;51.436;6.972;2022-10-26T09:03:36;17.90;99.90
2012;DHT22;1009;51.436;6.972;2022-10-26T09:06:23;17.90;99.90
2012;DHT22;1009;51.436;6.972;2022-10-26T09:08:58;18.10;99.90
2012;DHT22;1009;51.436;6.972;2022-10-26T09:11:43;18.20;99.90
2012;DHT22;1009;51.436;6.972;2022-10-26T09:14:16;18.30;99.90
2012;DHT22;1009;51.436;6.972;2022-10-26T09:16:52;18.30;99.90
2012;DHT22;1009;51.436;6.972;2022-10-26T09:19:51;18.40;99.90
2012;DHT22;1009;51.436;6.972;2022-10-26T09:22:23;18.40;99.90
2012;DHT22;1009;51.436;6.972;2022-10-26T09:24:54;18.60;99.90
2012;DHT22;1009;51.436;6.972;2022-10-26T09:27:25;18.70;99.90
2012;DHT22;1009;51.436;6.972;2022-10-26T09:29:53;18.50;99.90
2012;DHT22;1009;51.436;6.972;2022-10-26T09:32:25;18.50;99.90
2012;DHT22;1009;51.436;6.972;2022-10-26T09:34:55;18.70;99.90
2012;DHT22;1009;51.436;6.972;2022-10-26T09:37:25;18.80;99.90
2012;DHT22;1009;51.436;6.972;2022-10-26T09:39:58;18.60;99.90
2012;DHT22;1009;51.436;6.972;2022-10-26T09:42:37;18.50;99.90
2012;DHT22;1009;51.436;6.972;2022-10-26T09:45:12;18.50;99.90
2012;DHT22;1009;51.436;6.972;2022-10-26T09:47:43;18.30;99.90
2012;DHT22;1009;51.436;6.972;2022-10-26T09:50:19;18.10;99.90
2012;DHT22;1009;51.436;6.972;2022-10-26T09:52:47;18.00;99.90
2012;DHT22;1009;51.436;6.972;2022-10-26T09:55:15;17.90;99.90
2012;DHT22;1009;51.436;6.972;2022-10-26T09:57:45;17.90;99.90
2012;DHT22;1009;51.436;6.972;2022-10-26T10:00:13;17.90;99.90
2012;DHT22;1009;51.436;6.972;2022-10-26T10:02:42;17.90;99.90
2012;DHT22;1009;51.436;6.972;2022-10-26T10:05:27;17.90;99.90
2012;DHT22;1009;51.436;6.972;2022-10-26T10:08:14;18.20;99.90
2012;DHT22;1009;51.436;6.972;2022-10-26T10:11:00;18.60;99.90
2012;DHT22;1009;51.436;6.972;2022-10-26T10:13:30;18.90;99.90
2012;DHT22;1009;51.436;6.972;2022-10-26T10:16:05;19.20;99.90
2012;DHT22;1009;51.436;6.972;2022-10-26T10:18:32;19.50;99.90
2012;DHT22;1009;51.436;6.972;2022-10-26T10:20:59;19.60;99.90
2012;DHT22;1009;51.436;6.972;2022-10-26T10:23:29;19.60;99.90
2012;DHT22;1009;51.436;6.972;2022-10-26T10:26:02;19.60;99.90
2012;DHT22;1009;51.436;6.972;2022-10-26T10:28:30;19.70;99.90
2012;DHT22;1009;51.436;6.972;2022-10-26T10:30:59;19.90;99.90
2012;DHT22;1009;51.436;6.972;2022-10-26T10:33:34;19.90;99.90
2012;DHT22;1009;51.436;6.972;2022-10-26T10:36:02;19.90;99.90
2012;DHT22;1009;51.436;6.972;2022-10-26T10:38:29;19.70;99.90
2012;DHT22;1009;51.436;6.972;2022-10-26T10:41:02;19.80;99.90
2012;DHT22;1009;51.436;6.972;2022-10-26T10:43:31;19.90;99.90
2012;DHT22;1009;51.436;6.972;2022-10-26T10:45:58;20.10;99.90
2012;DHT22;1009;51.436;6.972;2022-10-26T10:48:26;20.10;99.90
2012;DHT22;1009;51.436;6.972;2022-10-26T10:50:55;20.10;99.90
2012;DHT22;1009;51.436;6.972;2022-10-26T10:53:26;20.10;99.90
2012;DHT22;1009;51.436;6.972;2022-10-26T10:56:02;20.00;99.90
2012;DHT22;1009;51.436;6.972;2022-10-26T10:58:38;20.00;99.90
2012;DHT22;1009;51.436;6.972;2022-10-26T11:01:11;19.90;99.90
2012;DHT22;1009;51.436;6.972;2022-10-26T11:03:46;20.00;99.90
2012;DHT22;1009;51.436;6.972;2022-10-26T11:06:16;20.30;99.90
2012;DHT22;1009;51.436;6.972;2022-10-26T11:09:04;20.50;99.90
2012;DHT22;1009;51.436;6.972;2022-10-26T11:11:49;20.70;99.90
2012;DHT22;1009;51.436;6.972;2022-10-26T11:14:23;20.70;99.90
2012;DHT22;1009;51.436;6.972;2022-10-26T11:16:54;20.60;99.90
2012;DHT22;1009;51.436;6.972;2022-10-26T11:19:25;20.60;99.90
2012;DHT22;1009;51.436;6.972;2022-10-26T11:21:55;20.50;99.90
2012;DHT22;1009;51.436;6.972;2022-10-26T11:24:25;20.50;99.90
2012;DHT22;1009;51.436;6.972;2022-10-26T11:26:55;20.40;99.90
2012;DHT22;1009;51.436;6.972;2022-10-26T11:29:34;20.50;99.90
2012;DHT22;1009;51.436;6.972;2022-10-26T11:32:09;20.60;99.90
2012;DHT22;1009;51.436;6.972;2022-10-26T11:34:42;20.80;99.90
2012;DHT22;1009;51.436;6.972;2022-10-26T11:37:15;20.90;99.90
2012;DHT22;1009;51.436;6.972;2022-10-26T11:39:52;20.90;99.90
2012;DHT22;1009;51.436;6.972;2022-10-26T11:42:23;20.70;99.90
2012;DHT22;1009;51.436;6.972;2022-10-26T11:44:58;20.90;99.90
2012;DHT22;1009;51.436;6.972;2022-10-26T11:47:31;20.90;99.90
2012;DHT22;1009;51.436;6.972;2022-10-26T11:50:05;20.90;99.90
2012;DHT22;1009;51.436;6.972;2022-10-26T11:52:39;21.00;99.90
2012;DHT22;1009;51.436;6.972;2022-10-26T11:55:09;21.00;99.90
2012;DHT22;1009;51.436;6.972;2022-10-26T11:57:37;21.10;99.90
2012;DHT22;1009;51.436;6.972;2022-10-26T12:00:14;21.00;99.90
2012;DHT22;1009;51.436;6.972;2022-10-26T12:02:42;21.00;99.90
2012;DHT22;1009;51.436;6.972;2022-10-26T12:05:18;21.10;99.90
2012;DHT22;1009;51.436;6.972;2022-10-26T12:07:48;21.10;99.90
2012;DHT22;1009;51.436;6.972;2022-10-26T12:10:23;21.20;99.90
2012;DHT22;1009;51.436;6.972;2022-10-26T12:12:56;21.30;99.90
2012;DHT22;1009;51.436;6.972;2022-10-26T12:15:30;21.30;99.90
2012;DHT22;1009;51.436;6.972;2022-10-26T12:18:05;21.30;99.90
2012;DHT22;1009;51.436;6.972;2022-10-26T12:20:51;21.20;99.90
2012;DHT22;1009;51.436;6.972;2022-10-26T12:23:19;21.30;99.90
2012;DHT22;1009;51.436;6.972;2022-10-26T12:25:47;21.40;99.90
2012;DHT22;1009;51.436;6.972;2022-10-26T12:28:37;21.40;99.90
2012;DHT22;1009;51.436;6.972;2022-10-26T12:31:41;21.50;99.90
2012;DHT22;1009;51.436;6.972;2022-10-26T12:34:10;21.40;99.90
2012;DHT22;1009;51.436;6.972;2022-10-26T12:36:47;21.50;99.90
2012;DHT22;1009;51.436;6.972;2022-10-26T12:39:28;21.50;99.90
2012;DHT22;1009;51.436;6.972;2022-10-26T12:41:57;21.60;99.90
2012;DHT22;1009;51.436;6.972;2022-10-26T12:44:32;21.70;99.90
2012;DHT22;1009;51.436;6.972;2022-10-26T12:47:01;21.50;99.90
2012;DHT22;1009;51.436;6.972;2022-10-26T12:55:41;20.90;99.90
2012;DHT22;1009;51.436;6.972;2022-10-26T12:58:39;20.90;99.90
2012;DHT22;1009;51.436;6.972;2022-10-26T13:04:18;21.00;99.90
2012;DHT22;1009;51.436;6.972;2022-10-26T13:07:09;21.00;99.90
2012;DHT22;1009;51.436;6.972;2022-10-26T13:09:38;20.90;99.90
2012;DHT22;1009;51.436;6.972;2022-10-26T13:12:09;21.00;99.90
2012;DHT22;1009;51.436;6.972;2022-10-26T13:14:52;21.30;99.90
2012;DHT22;1009;51.436;6.972;2022-10-26T13:17:23;21.40;99.90
2012;DHT22;1009;51.436;6.972;2022-10-26T13:19:56;21.50;99.90
2012;DHT22;1009;51.436;6.972;2022-10-26T13:22:24;21.70;99.90
2012;DHT22;1009;51.436;6.972;2022-10-26T13:24:53;22.10;99.90
2012;DHT22;1009;51.436;6.972;2022-10-26T13:27:23;22.20;99.90
2012;DHT22;1009;51.436;6.972;2022-10-26T13:30:15;22.40;99.90
2012;DHT22;1009;51.436;6.972;2022-10-26T13:32:48;22.50;99.90
2012;DHT22;1009;51.436;6.972;2022-10-26T13:35:18;22.50;99.90
2012;DHT22;1009;51.436;6.972;2022-10-26T13:37:49;22.80;99.90
2012;DHT22;1009;51.436;6.972;2022-10-26T13:40:17;22.80;99.90
2012;DHT22;1009;51.436;6.972;2022-10-26T13:42:47;22.70;99.90
2012;DHT22;1009;51.436;6.972;2022-10-26T13:45:18;22.80;99.90
2012;DHT22;1009;51.436;6.972;2022-10-26T13:47:48;22.80;99.90
2012;DHT22;1009;51.436;6.972;2022-10-26T13:50:22;22.70;99.90
2012;DHT22;1009;51.436;6.972;2022-10-26T13:52:52;22.60;99.90
2012;DHT22;1009;51.436;6.972;2022-10-26T13:55:22;22.70;99.90
2012;DHT22;1009;51.436;6.972;2022-10-26T13:58:01;22.70;99.90
2012;DHT22;1009;51.436;6.972;2022-10-26T14:00:31;22.60;99.90
2012;DHT22;1009;51.436;6.972;2022-10-26T14:02:58;22.50;99.90
2012;DHT22;1009;51.436;6.972;2022-10-26T14:05:26;22.30;99.90
2012;DHT22;1009;51.436;6.972;2022-10-26T14:07:55;22.10;99.90
2012;DHT22;1009;51.436;6.972;2022-10-26T14:10:24;22.10;99.90
2012;DHT22;1009;51.436;6.972;2022-10-26T14:12:52;21.90;99.90
2012;DHT22;1009;51.436;6.972;2022-10-26T14:15:23;21.80;99.90
2012;DHT22;1009;51.436;6.972;2022-10-26T14:17:51;21.70;99.90
2012;DHT22;1009;51.436;6.972;2022-10-26T14:20:21;21.50;99.90
2012;DHT22;1009;51.436;6.972;2022-10-26T14:22:49;21.40;99.90
2012;DHT22;1009;51.436;6.972;2022-10-26T14:25:18;21.40;99.90
2012;DHT22;1009;51.436;6.972;2022-10-26T14:27:45;21.30;99.90
2012;DHT22;1009;51.436;6.972;2022-10-26T14:30:23;21.10;99.90
2012;DHT22;1009;51.436;6.972;2022-10-26T14:32:51;21.00;99.90
2012;DHT22;1009;51.436;6.972;2022-10-26T14:35:21;21.00;99.90
2012;DHT22;1009;51.436;6.972;2022-10-26T14:37:52;21.00;99.90
2012;DHT22;1009;51.436;6.972;2022-10-26T14:40:24;20.90;99.90
2012;DHT22;1009;51.436;6.972;2022-10-26T14:42:54;20.90;99.90
2012;DHT22;1009;51.436;6.972;2022-10-26T14:45:24;20.80;99.90
2012;DHT22;1009;51.436;6.972;2022-10-26T14:47:54;20.70;99.90
2012;DHT22;1009;51.436;6.972;2022-10-26T14:50:22;20.80;99.90
2012;DHT22;1009;51.436;6.972;2022-10-26T14:52:54;20.80;99.90
2012;DHT22;1009;51.436;6.972;2022-10-26T14:55:25;20.70;99.90
2012;DHT22;1009;51.436;6.972;2022-10-26T14:58:06;20.60;99.90
2012;DHT22;1009;51.436;6.972;2022-10-26T15:00:34;20.60;99.90
2012;DHT22;1009;51.436;6.972;2022-10-26T15:03:01;20.50;99.90
2012;DHT22;1009;51.436;6.972;2022-10-26T15:05:28;20.40;99.90
2012;DHT22;1009;51.436;6.972;2022-10-26T15:07:59;20.40;99.90
2012;DHT22;1009;51.436;6.972;2022-10-26T15:10:44;20.30;99.90
2012;DHT22;1009;51.436;6.972;2022-10-26T15:13:19;20.30;99.90
2012;DHT22;1009;51.436;6.972;2022-10-26T15:15:48;20.30;99.90
2012;DHT22;1009;51.436;6.972;2022-10-26T15:18:19;20.30;99.90
2012;DHT22;1009;51.436;6.972;2022-10-26T15:20:48;20.30;99.90
2012;DHT22;1009;51.436;6.972;2022-10-26T15:23:17;20.30;99.90
2012;DHT22;1009;51.436;6.972;2022-10-26T15:25:51;20.40;99.90
2012;DHT22;1009;51.436;6.972;2022-10-26T15:28:28;20.40;99.90
2012;DHT22;1009;51.436;6.972;2022-10-26T15:31:03;20.40;99.90
2012;DHT22;1009;51.436;6.972;2022-10-26T15:33:31;20.30;99.90
2012;DHT22;1009;51.436;6.972;2022-10-26T15:36:15;20.30;99.90
2012;DHT22;1009;51.436;6.972;2022-10-26T15:38:44;20.20;99.90
2012;DHT22;1009;51.436;6.972;2022-10-26T15:41:14;20.20;99.90
2012;DHT22;1009;51.436;6.972;2022-10-26T15:43:42;20.20;99.90
2012;DHT22;1009;51.436;6.972;2022-10-26T15:46:09;20.20;99.90
2012;DHT22;1009;51.436;6.972;2022-10-26T15:48:35;20.10;99.90
2012;DHT22;1009;51.436;6.972;2022-10-26T15:51:04;20.10;99.90
2012;DHT22;1009;51.436;6.972;2022-10-26T15:53:31;19.90;99.90
2012;DHT22;1009;51.436;6.972;2022-10-26T15:55:59;19.90;99.90
2012;DHT22;1009;51.436;6.972;2022-10-26T16:00:53;19.80;99.90
2012;DHT22;1009;51.436;6.972;2022-10-26T16:03:23;19.70;99.90
2012;DHT22;1009;51.436;6.972;2022-10-26T16:05:52;19.60;99.90
2012;DHT22;1009;51.436;6.972;2022-10-26T16:08:20;19.60;99.90
2012;DHT22;1009;51.436;6.972;2022-10-26T16:10:47;19.50;99.90
2012;DHT22;1009;51.436;6.972;2022-10-26T16:13:17;19.50;99.90
2012;DHT22;1009;51.436;6.972;2022-10-26T16:15:44;19.40;99.90
2012;DHT22;1009;51.436;6.972;2022-10-26T16:18:11;19.30;99.90
2012;DHT22;1009;51.436;6.972;2022-10-26T16:20:37;19.30;99.90
2012;DHT22;1009;51.436;6.972;2022-10-26T16:23:04;19.30;99.90
2012;DHT22;1009;51.436;6.972;2022-10-26T16:25:33;19.30;99.90
2012;DHT22;1009;51.436;6.972;2022-10-26T16:28:01;19.20;99.90
2012;DHT22;1009;51.436;6.972;2022-10-26T16:30:29;19.10;99.90
2012;DHT22;1009;51.436;6.972;2022-10-26T16:32:56;19.10;99.90
2012;DHT22;1009;51.436;6.972;2022-10-26T16:35:23;19.00;99.90
2012;DHT22;1009;51.436;6.972;2022-10-26T16:37:49;18.90;99.90
2012;DHT22;1009;51.436;6.972;2022-10-26T16:40:16;18.90;99.90